Wilton, Missouri
Current Conditions -  °F | °C
As of 6:54 PM on Tuesday 21 Oct 2014 (Local Time) from KCOU Reporting Station
Clear Clear  
Wind Chill: 59°   Ceiling: Unl
Heat Index: 59°   Visibility: 10mi
Dew Point: 46°   Wind: 8mph
Humidity: 62%   Direction: 50°NE
Pressure: 30.12"   Gusts: NA
Location:  38.7092°N, 92.2897°W
Report Text: KCOU 212354Z 05007KT 10SM CLR 15/08 A3012 RMK AO2 SLP199 T01500078 10228 20150 53006
Loading
Personal Weather Stations






























Interactive Weather Map
Tropical Storm Tracking
New forecast layout! Learn more

10-Day Weather Forecast

Advertisements
Track Severe Weather on mobile